sensor_id;sensor_type;location;lat;lon;timestamp;P1;durP1;ratioP1;P2;durP2;ratioP2
8944;SDS011;4507;40.232;29.132;2023-10-09T00:00:34;23.57;;;15.73;;
8944;SDS011;4507;40.232;29.132;2023-10-09T00:03:28;20.73;;;16.07;;
8944;SDS011;4507;40.232;29.132;2023-10-09T00:05:58;21.83;;;15.40;;
8944;SDS011;4507;40.232;29.132;2023-10-09T00:08:30;21.30;;;15.33;;
8944;SDS011;4507;40.232;29.132;2023-10-09T00:10:59;25.17;;;15.77;;
8944;SDS011;4507;40.232;29.132;2023-10-09T00:13:45;25.60;;;15.77;;
8944;SDS011;4507;40.232;29.132;2023-10-09T00:16:20;26.20;;;16.67;;
8944;SDS011;4507;40.232;29.132;2023-10-09T00:19:02;22.10;;;14.67;;
8944;SDS011;4507;40.232;29.132;2023-10-09T00:21:44;24.97;;;15.20;;
8944;SDS011;4507;40.232;29.132;2023-10-09T00:24:22;18.47;;;14.33;;
8944;SDS011;4507;40.232;29.132;2023-10-09T00:26:51;26.80;;;14.57;;
8944;SDS011;4507;40.232;29.132;2023-10-09T00:29:30;24.60;;;15.70;;
8944;SDS011;4507;40.232;29.132;2023-10-09T00:32:03;25.83;;;16.17;;
8944;SDS011;4507;40.232;29.132;2023-10-09T00:34:40;21.87;;;15.83;;
8944;SDS011;4507;40.232;29.132;2023-10-09T00:37:11;31.27;;;15.83;;
8944;SDS011;4507;40.232;29.132;2023-10-09T00:39:43;29.17;;;15.77;;
8944;SDS011;4507;40.232;29.132;2023-10-09T00:42:15;20.97;;;15.03;;
8944;SDS011;4507;40.232;29.132;2023-10-09T00:44:56;27.87;;;14.80;;
8944;SDS011;4507;40.232;29.132;2023-10-09T00:47:30;20.23;;;14.80;;
8944;SDS011;4507;40.232;29.132;2023-10-09T00:50:07;18.77;;;14.00;;
8944;SDS011;4507;40.232;29.132;2023-10-09T00:53:08;21.47;;;13.90;;
8944;SDS011;4507;40.232;29.132;2023-10-09T00:55:51;21.40;;;14.23;;
8944;SDS011;4507;40.232;29.132;2023-10-09T00:58:47;23.60;;;14.77;;
8944;SDS011;4507;40.232;29.132;2023-10-09T01:01:52;22.60;;;14.37;;
8944;SDS011;4507;40.232;29.132;2023-10-09T01:04:52;21.87;;;14.47;;
8944;SDS011;4507;40.232;29.132;2023-10-09T01:08:05;35.60;;;17.83;;
8944;SDS011;4507;40.232;29.132;2023-10-09T01:11:00;48.10;;;18.00;;
8944;SDS011;4507;40.232;29.132;2023-10-09T01:14:04;40.43;;;18.77;;
8944;SDS011;4507;40.232;29.132;2023-10-09T01:17:00;28.13;;;16.73;;
8944;SDS011;4507;40.232;29.132;2023-10-09T01:19:52;28.53;;;16.90;;
8944;SDS011;4507;40.232;29.132;2023-10-09T01:22:43;26.10;;;16.37;;
8944;SDS011;4507;40.232;29.132;2023-10-09T01:25:16;29.20;;;17.37;;
8944;SDS011;4507;40.232;29.132;2023-10-09T01:27:47;23.27;;;16.23;;
8944;SDS011;4507;40.232;29.132;2023-10-09T01:30:18;25.13;;;16.97;;
8944;SDS011;4507;40.232;29.132;2023-10-09T01:32:47;27.77;;;16.40;;
8944;SDS011;4507;40.232;29.132;2023-10-09T01:35:18;27.77;;;17.00;;
8944;SDS011;4507;40.232;29.132;2023-10-09T01:37:48;26.60;;;17.80;;
8944;SDS011;4507;40.232;29.132;2023-10-09T01:40:27;30.00;;;20.30;;
8944;SDS011;4507;40.232;29.132;2023-10-09T01:43:05;33.20;;;20.10;;
8944;SDS011;4507;40.232;29.132;2023-10-09T01:45:37;31.13;;;19.10;;
8944;SDS011;4507;40.232;29.132;2023-10-09T01:48:13;27.50;;;18.00;;
8944;SDS011;4507;40.232;29.132;2023-10-09T01:50:51;29.97;;;18.77;;
8944;SDS011;4507;40.232;29.132;2023-10-09T01:53:20;31.20;;;18.60;;
8944;SDS011;4507;40.232;29.132;2023-10-09T01:56:03;25.73;;;16.60;;
8944;SDS011;4507;40.232;29.132;2023-10-09T01:58:49;24.07;;;15.90;;
8944;SDS011;4507;40.232;29.132;2023-10-09T02:01:20;23.70;;;15.87;;
8944;SDS011;4507;40.232;29.132;2023-10-09T02:03:50;23.80;;;16.13;;
8944;SDS011;4507;40.232;29.132;2023-10-09T02:06:27;30.37;;;16.70;;
8944;SDS011;4507;40.232;29.132;2023-10-09T02:09:13;33.10;;;16.07;;
8944;SDS011;4507;40.232;29.132;2023-10-09T02:12:09;29.10;;;15.93;;
8944;SDS011;4507;40.232;29.132;2023-10-09T02:14:39;23.63;;;15.23;;
8944;SDS011;4507;40.232;29.132;2023-10-09T02:17:11;32.07;;;15.90;;
8944;SDS011;4507;40.232;29.132;2023-10-09T02:19:46;26.43;;;15.50;;
8944;SDS011;4507;40.232;29.132;2023-10-09T02:22:16;23.00;;;14.90;;
8944;SDS011;4507;40.232;29.132;2023-10-09T02:24:46;21.33;;;15.20;;
8944;SDS011;4507;40.232;29.132;2023-10-09T02:27:21;20.70;;;14.93;;
8944;SDS011;4507;40.232;29.132;2023-10-09T02:30:04;23.03;;;14.87;;
8944;SDS011;4507;40.232;29.132;2023-10-09T02:32:42;22.57;;;14.97;;
8944;SDS011;4507;40.232;29.132;2023-10-09T02:35:34;26.70;;;17.13;;
8944;SDS011;4507;40.232;29.132;2023-10-09T02:38:09;26.60;;;16.63;;
8944;SDS011;4507;40.232;29.132;2023-10-09T02:40:41;24.80;;;16.37;;
8944;SDS011;4507;40.232;29.132;2023-10-09T02:43:43;29.13;;;16.23;;
8944;SDS011;4507;40.232;29.132;2023-10-09T02:46:14;81.60;;;20.97;;
8944;SDS011;4507;40.232;29.132;2023-10-09T02:48:45;61.10;;;19.57;;
8944;SDS011;4507;40.232;29.132;2023-10-09T02:51:18;40.73;;;19.27;;
8944;SDS011;4507;40.232;29.132;2023-10-09T02:54:00;38.70;;;18.73;;
8944;SDS011;4507;40.232;29.132;2023-10-09T02:56:46;60.60;;;21.90;;
8944;SDS011;4507;40.232;29.132;2023-10-09T02:59:31;40.47;;;18.80;;
8944;SDS011;4507;40.232;29.132;2023-10-09T03:02:14;38.80;;;21.87;;
8944;SDS011;4507;40.232;29.132;2023-10-09T03:04:45;37.03;;;21.73;;
8944;SDS011;4507;40.232;29.132;2023-10-09T03:07:16;33.53;;;21.50;;
8944;SDS011;4507;40.232;29.132;2023-10-09T03:10:11;32.83;;;20.50;;
8944;SDS011;4507;40.232;29.132;2023-10-09T03:12:41;37.83;;;20.53;;
8944;SDS011;4507;40.232;29.132;2023-10-09T03:15:12;35.40;;;22.43;;
8944;SDS011;4507;40.232;29.132;2023-10-09T03:17:41;32.57;;;22.63;;
8944;SDS011;4507;40.232;29.132;2023-10-09T03:20:11;28.50;;;22.20;;
8944;SDS011;4507;40.232;29.132;2023-10-09T03:22:41;27.87;;;21.00;;
8944;SDS011;4507;40.232;29.132;2023-10-09T03:25:11;28.93;;;21.50;;
8944;SDS011;4507;40.232;29.132;2023-10-09T03:27:44;31.87;;;21.80;;
8944;SDS011;4507;40.232;29.132;2023-10-09T03:30:15;31.10;;;22.27;;
8944;SDS011;4507;40.232;29.132;2023-10-09T03:32:50;29.03;;;21.43;;
8944;SDS011;4507;40.232;29.132;2023-10-09T03:35:22;29.40;;;20.40;;
8944;SDS011;4507;40.232;29.132;2023-10-09T03:37:55;28.77;;;20.63;;
8944;SDS011;4507;40.232;29.132;2023-10-09T03:40:27;30.93;;;21.97;;
8944;SDS011;4507;40.232;29.132;2023-10-09T03:43:03;24.97;;;19.93;;
8944;SDS011;4507;40.232;29.132;2023-10-09T03:46:06;33.40;;;24.53;;
8944;SDS011;4507;40.232;29.132;2023-10-09T03:48:59;34.80;;;26.03;;
8944;SDS011;4507;40.232;29.132;2023-10-09T03:51:29;38.50;;;26.00;;
8944;SDS011;4507;40.232;29.132;2023-10-09T03:53:59;38.30;;;25.23;;
8944;SDS011;4507;40.232;29.132;2023-10-09T03:56:34;31.67;;;24.00;;
8944;SDS011;4507;40.232;29.132;2023-10-09T03:59:04;32.37;;;21.53;;
8944;SDS011;4507;40.232;29.132;2023-10-09T04:01:37;34.87;;;22.17;;
8944;SDS011;4507;40.232;29.132;2023-10-09T04:04:06;34.43;;;22.40;;
8944;SDS011;4507;40.232;29.132;2023-10-09T04:06:41;28.00;;;21.20;;
8944;SDS011;4507;40.232;29.132;2023-10-09T04:09:11;26.67;;;21.57;;
8944;SDS011;4507;40.232;29.132;2023-10-09T04:12:03;35.13;;;21.70;;
8944;SDS011;4507;40.232;29.132;2023-10-09T04:14:52;28.70;;;22.40;;
8944;SDS011;4507;40.232;29.132;2023-10-09T04:17:30;30.93;;;22.60;;
8944;SDS011;4507;40.232;29.132;2023-10-09T04:20:03;28.50;;;22.50;;
8944;SDS011;4507;40.232;29.132;2023-10-09T04:22:50;27.70;;;22.13;;
8944;SDS011;4507;40.232;29.132;2023-10-09T04:25:27;27.73;;;21.83;;
8944;SDS011;4507;40.232;29.132;2023-10-09T04:28:03;30.43;;;21.57;;
8944;SDS011;4507;40.232;29.132;2023-10-09T04:30:37;33.87;;;22.80;;
8944;SDS011;4507;40.232;29.132;2023-10-09T04:33:14;31.57;;;23.50;;
8944;SDS011;4507;40.232;29.132;2023-10-09T04:35:55;34.57;;;23.20;;
8944;SDS011;4507;40.232;29.132;2023-10-09T04:38:51;33.70;;;23.83;;
8944;SDS011;4507;40.232;29.132;2023-10-09T04:41:43;30.13;;;24.67;;
8944;SDS011;4507;40.232;29.132;2023-10-09T04:44:42;36.53;;;27.57;;
8944;SDS011;4507;40.232;29.132;2023-10-09T04:47:27;37.83;;;26.27;;
8944;SDS011;4507;40.232;29.132;2023-10-09T04:50:07;44.37;;;28.83;;
8944;SDS011;4507;40.232;29.132;2023-10-09T04:52:38;56.27;;;34.80;;
8944;SDS011;4507;40.232;29.132;2023-10-09T04:55:19;36.83;;;26.73;;
8944;SDS011;4507;40.232;29.132;2023-10-09T04:58:14;37.23;;;28.00;;
8944;SDS011;4507;40.232;29.132;2023-10-09T05:00:51;34.37;;;25.67;;
8944;SDS011;4507;40.232;29.132;2023-10-09T05:03:41;34.60;;;26.77;;
8944;SDS011;4507;40.232;29.132;2023-10-09T05:06:14;32.50;;;25.13;;
8944;SDS011;4507;40.232;29.132;2023-10-09T05:09:10;32.10;;;25.07;;
8944;SDS011;4507;40.232;29.132;2023-10-09T05:11:42;32.47;;;24.37;;
8944;SDS011;4507;40.232;29.132;2023-10-09T05:14:28;29.63;;;23.23;;
8944;SDS011;4507;40.232;29.132;2023-10-09T05:17:06;31.00;;;23.27;;
8944;SDS011;4507;40.232;29.132;2023-10-09T05:19:43;32.13;;;23.43;;
8944;SDS011;4507;40.232;29.132;2023-10-09T05:22:27;39.43;;;27.33;;
8944;SDS011;4507;40.232;29.132;2023-10-09T05:25:06;37.13;;;26.27;;
8944;SDS011;4507;40.232;29.132;2023-10-09T05:27:43;37.30;;;28.47;;
8944;SDS011;4507;40.232;29.132;2023-10-09T05:30:18;32.73;;;26.17;;
8944;SDS011;4507;40.232;29.132;2023-10-09T05:32:53;35.63;;;26.33;;
8944;SDS011;4507;40.232;29.132;2023-10-09T05:35:55;33.90;;;25.17;;
8944;SDS011;4507;40.232;29.132;2023-10-09T05:38:43;34.17;;;22.63;;
8944;SDS011;4507;40.232;29.132;2023-10-09T05:41:58;36.10;;;22.17;;
8944;SDS011;4507;40.232;29.132;2023-10-09T05:44:35;32.20;;;22.07;;
8944;SDS011;4507;40.232;29.132;2023-10-09T05:47:29;30.07;;;20.00;;
8944;SDS011;4507;40.232;29.132;2023-10-09T05:49:59;34.03;;;24.13;;
8944;SDS011;4507;40.232;29.132;2023-10-09T05:52:48;40.93;;;25.97;;
8944;SDS011;4507;40.232;29.132;2023-10-09T05:59:00;33.27;;;27.87;;
8944;SDS011;4507;40.232;29.132;2023-10-09T06:01:55;37.50;;;26.83;;
8944;SDS011;4507;40.232;29.132;2023-10-09T06:04:42;37.20;;;26.23;;
8944;SDS011;4507;40.232;29.132;2023-10-09T06:07:22;36.07;;;27.20;;
8944;SDS011;4507;40.232;29.132;2023-10-09T06:10:08;33.27;;;25.73;;
8944;SDS011;4507;40.232;29.132;2023-10-09T06:12:46;38.57;;;27.37;;
8944;SDS011;4507;40.232;29.132;2023-10-09T06:15:26;40.07;;;27.43;;
8944;SDS011;4507;40.232;29.132;2023-10-09T06:18:18;34.27;;;27.43;;
8944;SDS011;4507;40.232;29.132;2023-10-09T06:20:53;36.20;;;27.77;;
8944;SDS011;4507;40.232;29.132;2023-10-09T06:23:58;36.43;;;29.60;;
8944;SDS011;4507;40.232;29.132;2023-10-09T06:26:45;36.83;;;29.20;;
8944;SDS011;4507;40.232;29.132;2023-10-09T06:29:34;35.80;;;27.67;;
8944;SDS011;4507;40.232;29.132;2023-10-09T06:32:05;40.90;;;30.30;;
8944;SDS011;4507;40.232;29.132;2023-10-09T06:35:01;39.47;;;27.67;;
8944;SDS011;4507;40.232;29.132;2023-10-09T06:37:45;30.53;;;23.63;;
8944;SDS011;4507;40.232;29.132;2023-10-09T06:40:32;30.83;;;26.63;;
8944;SDS011;4507;40.232;29.132;2023-10-09T06:43:20;39.37;;;28.50;;
8944;SDS011;4507;40.232;29.132;2023-10-09T06:45:55;36.37;;;27.63;;
8944;SDS011;4507;40.232;29.132;2023-10-09T06:48:47;36.50;;;26.90;;
8944;SDS011;4507;40.232;29.132;2023-10-09T06:51:24;33.83;;;26.17;;
8944;SDS011;4507;40.232;29.132;2023-10-09T06:54:09;39.37;;;32.37;;
8944;SDS011;4507;40.232;29.132;2023-10-09T06:56:41;41.27;;;35.90;;
8944;SDS011;4507;40.232;29.132;2023-10-09T06:59:28;32.70;;;28.47;;
8944;SDS011;4507;40.232;29.132;2023-10-09T07:02:10;19.87;;;15.93;;
8944;SDS011;4507;40.232;29.132;2023-10-09T07:04:54;21.27;;;16.67;;
8944;SDS011;4507;40.232;29.132;2023-10-09T07:07:40;19.87;;;15.90;;
8944;SDS011;4507;40.232;29.132;2023-10-09T07:10:19;22.10;;;16.40;;
8944;SDS011;4507;40.232;29.132;2023-10-09T07:13:00;20.20;;;15.93;;
8944;SDS011;4507;40.232;29.132;2023-10-09T07:15:31;25.53;;;18.17;;
8944;SDS011;4507;40.232;29.132;2023-10-09T07:18:20;21.30;;;16.20;;
8944;SDS011;4507;40.232;29.132;2023-10-09T07:21:09;19.17;;;15.07;;
8944;SDS011;4507;40.232;29.132;2023-10-09T07:23:45;20.20;;;16.37;;
8944;SDS011;4507;40.232;29.132;2023-10-09T07:26:16;24.03;;;17.23;;
8944;SDS011;4507;40.232;29.132;2023-10-09T07:29:04;22.30;;;17.33;;
8944;SDS011;4507;40.232;29.132;2023-10-09T07:31:48;25.07;;;16.90;;
8944;SDS011;4507;40.232;29.132;2023-10-09T07:34:26;23.87;;;16.80;;
8944;SDS011;4507;40.232;29.132;2023-10-09T07:37:01;23.93;;;17.73;;
8944;SDS011;4507;40.232;29.132;2023-10-09T07:39:31;22.50;;;19.33;;
8944;SDS011;4507;40.232;29.132;2023-10-09T07:42:05;28.37;;;22.27;;
8944;SDS011;4507;40.232;29.132;2023-10-09T07:44:47;20.03;;;17.77;;
8944;SDS011;4507;40.232;29.132;2023-10-09T07:47:22;20.80;;;16.17;;
8944;SDS011;4507;40.232;29.132;2023-10-09T07:50:00;17.97;;;16.07;;
8944;SDS011;4507;40.232;29.132;2023-10-09T07:52:51;20.87;;;15.93;;
8944;SDS011;4507;40.232;29.132;2023-10-09T07:55:40;15.00;;;13.50;;
8944;SDS011;4507;40.232;29.132;2023-10-09T07:58:16;19.47;;;13.97;;
8944;SDS011;4507;40.232;29.132;2023-10-09T08:00:52;18.67;;;14.73;;
8944;SDS011;4507;40.232;29.132;2023-10-09T08:03:43;15.17;;;13.13;;
8944;SDS011;4507;40.232;29.132;2023-10-09T08:06:24;14.37;;;12.93;;
8944;SDS011;4507;40.232;29.132;2023-10-09T08:09:34;13.33;;;11.87;;
8944;SDS011;4507;40.232;29.132;2023-10-09T08:12:14;12.33;;;11.07;;
8944;SDS011;4507;40.232;29.132;2023-10-09T08:14:57;13.23;;;11.60;;
8944;SDS011;4507;40.232;29.132;2023-10-09T08:17:48;19.77;;;13.03;;
8944;SDS011;4507;40.232;29.132;2023-10-09T08:20:21;14.70;;;12.13;;
8944;SDS011;4507;40.232;29.132;2023-10-09T08:22:53;13.13;;;11.73;;
8944;SDS011;4507;40.232;29.132;2023-10-09T08:25:25;17.37;;;11.80;;
8944;SDS011;4507;40.232;29.132;2023-10-09T08:27:55;14.10;;;11.10;;
8944;SDS011;4507;40.232;29.132;2023-10-09T08:30:25;9.63;;;8.40;;
8944;SDS011;4507;40.232;29.132;2023-10-09T08:33:08;11.30;;;9.43;;
8944;SDS011;4507;40.232;29.132;2023-10-09T08:35:57;12.33;;;9.83;;
8944;SDS011;4507;40.232;29.132;2023-10-09T08:38:32;12.97;;;9.97;;
8944;SDS011;4507;40.232;29.132;2023-10-09T08:41:10;12.73;;;7.93;;
8944;SDS011;4507;40.232;29.132;2023-10-09T08:43:50;18.77;;;9.27;;
8944;SDS011;4507;40.232;29.132;2023-10-09T08:46:23;11.33;;;6.50;;
8944;SDS011;4507;40.232;29.132;2023-10-09T08:48:55;17.00;;;7.33;;
8944;SDS011;4507;40.232;29.132;2023-10-09T08:51:25;23.97;;;9.70;;
8944;SDS011;4507;40.232;29.132;2023-10-09T08:54:16;16.27;;;9.30;;
8944;SDS011;4507;40.232;29.132;2023-10-09T08:56:52;11.20;;;6.07;;
8944;SDS011;4507;40.232;29.132;2023-10-09T08:59:25;11.73;;;4.80;;
8944;SDS011;4507;40.232;29.132;2023-10-09T09:01:54;14.53;;;6.37;;
8944;SDS011;4507;40.232;29.132;2023-10-09T09:04:33;22.20;;;17.37;;
8944;SDS011;4507;40.232;29.132;2023-10-09T09:07:03;17.27;;;11.87;;
8944;SDS011;4507;40.232;29.132;2023-10-09T09:09:33;25.00;;;12.00;;
8944;SDS011;4507;40.232;29.132;2023-10-09T09:12:04;40.77;;;7.40;;
8944;SDS011;4507;40.232;29.132;2023-10-09T09:14:35;28.10;;;10.03;;
8944;SDS011;4507;40.232;29.132;2023-10-09T09:17:06;41.07;;;16.17;;
8944;SDS011;4507;40.232;29.132;2023-10-09T09:19:44;47.50;;;16.20;;
8944;SDS011;4507;40.232;29.132;2023-10-09T09:22:17;43.67;;;13.83;;
8944;SDS011;4507;40.232;29.132;2023-10-09T09:24:56;31.70;;;12.67;;
8944;SDS011;4507;40.232;29.132;2023-10-09T09:27:47;56.00;;;20.83;;
8944;SDS011;4507;40.232;29.132;2023-10-09T09:30:23;21.77;;;11.90;;
8944;SDS011;4507;40.232;29.132;2023-10-09T09:32:58;18.93;;;6.77;;
8944;SDS011;4507;40.232;29.132;2023-10-09T09:35:57;9.20;;;4.57;;
8944;SDS011;4507;40.232;29.132;2023-10-09T09:38:31;22.07;;;5.50;;
8944;SDS011;4507;40.232;29.132;2023-10-09T09:41:09;28.97;;;6.03;;
8944;SDS011;4507;40.232;29.132;2023-10-09T09:43:41;11.20;;;5.53;;
8944;SDS011;4507;40.232;29.132;2023-10-09T09:46:13;47.57;;;10.17;;
8944;SDS011;4507;40.232;29.132;2023-10-09T09:48:49;43.83;;;11.30;;
8944;SDS011;4507;40.232;29.132;2023-10-09T09:51:21;37.50;;;7.90;;
8944;SDS011;4507;40.232;29.132;2023-10-09T09:53:50;32.10;;;9.03;;
8944;SDS011;4507;40.232;29.132;2023-10-09T09:56:20;37.17;;;13.50;;
8944;SDS011;4507;40.232;29.132;2023-10-09T09:58:54;65.33;;;24.67;;
8944;SDS011;4507;40.232;29.132;2023-10-09T10:01:33;62.30;;;29.37;;
8944;SDS011;4507;40.232;29.132;2023-10-09T10:04:07;61.40;;;22.50;;
8944;SDS011;4507;40.232;29.132;2023-10-09T10:06:41;31.97;;;19.83;;
8944;SDS011;4507;40.232;29.132;2023-10-09T10:12:08;40.57;;;21.57;;
8944;SDS011;4507;40.232;29.132;2023-10-09T10:14:55;27.10;;;14.27;;
8944;SDS011;4507;40.232;29.132;2023-10-09T10:17:26;28.23;;;17.17;;
8944;SDS011;4507;40.232;29.132;2023-10-09T10:20:03;35.23;;;24.97;;
8944;SDS011;4507;40.232;29.132;2023-10-09T10:22:51;10.53;;;8.93;;
8944;SDS011;4507;40.232;29.132;2023-10-09T10:25:46;20.60;;;9.47;;
8944;SDS011;4507;40.232;29.132;2023-10-09T10:28:27;13.80;;;8.37;;
8944;SDS011;4507;40.232;29.132;2023-10-09T10:31:04;44.37;;;12.83;;
8944;SDS011;4507;40.232;29.132;2023-10-09T10:36:43;15.40;;;7.03;;
8944;SDS011;4507;40.232;29.132;2023-10-09T10:39:32;20.63;;;7.00;;
8944;SDS011;4507;40.232;29.132;2023-10-09T10:42:15;12.93;;;5.77;;
8944;SDS011;4507;40.232;29.132;2023-10-09T10:45:01;16.23;;;5.53;;
8944;SDS011;4507;40.232;29.132;2023-10-09T10:47:43;31.77;;;6.73;;
8944;SDS011;4507;40.232;29.132;2023-10-09T10:50:17;37.60;;;7.03;;
8944;SDS011;4507;40.232;29.132;2023-10-09T10:53:11;14.77;;;5.07;;
8944;SDS011;4507;40.232;29.132;2023-10-09T10:55:56;34.53;;;10.63;;
8944;SDS011;4507;40.232;29.132;2023-10-09T10:58:51;36.80;;;19.37;;
8944;SDS011;4507;40.232;29.132;2023-10-09T11:01:38;29.23;;;19.40;;
8944;SDS011;4507;40.232;29.132;2023-10-09T11:04:27;34.37;;;9.33;;
8944;SDS011;4507;40.232;29.132;2023-10-09T11:07:09;25.10;;;8.13;;
8944;SDS011;4507;40.232;29.132;2023-10-09T11:09:42;15.80;;;7.10;;
8944;SDS011;4507;40.232;29.132;2023-10-09T11:12:26;38.93;;;23.13;;
8944;SDS011;4507;40.232;29.132;2023-10-09T11:15:05;26.17;;;9.53;;
8944;SDS011;4507;40.232;29.132;2023-10-09T11:20:07;20.97;;;8.70;;
8944;SDS011;4507;40.232;29.132;2023-10-09T11:22:51;21.50;;;4.07;;
8944;SDS011;4507;40.232;29.132;2023-10-09T11:25:42;22.53;;;6.57;;
8944;SDS011;4507;40.232;29.132;2023-10-09T11:28:20;28.03;;;6.27;;
8944;SDS011;4507;40.232;29.132;2023-10-09T11:31:05;7.70;;;3.73;;
8944;SDS011;4507;40.232;29.132;2023-10-09T11:33:44;16.43;;;4.93;;
8944;SDS011;4507;40.232;29.132;2023-10-09T11:36:14;22.40;;;4.33;;
8944;SDS011;4507;40.232;29.132;2023-10-09T11:38:44;39.90;;;5.83;;
8944;SDS011;4507;40.232;29.132;2023-10-09T11:41:16;29.13;;;3.50;;
8944;SDS011;4507;40.232;29.132;2023-10-09T11:43:50;27.83;;;5.23;;
8944;SDS011;4507;40.232;29.132;2023-10-09T11:46:22;44.70;;;4.93;;
8944;SDS011;4507;40.232;29.132;2023-10-09T11:49:16;45.63;;;13.37;;
8944;SDS011;4507;40.232;29.132;2023-10-09T11:52:08;22.60;;;6.23;;
8944;SDS011;4507;40.232;29.132;2023-10-09T11:54:51;17.53;;;10.37;;
8944;SDS011;4507;40.232;29.132;2023-10-09T11:57:24;14.43;;;6.77;;
8944;SDS011;4507;40.232;29.132;2023-10-09T11:59:59;19.83;;;12.10;;
8944;SDS011;4507;40.232;29.132;2023-10-09T12:02:33;34.43;;;16.57;;
8944;SDS011;4507;40.232;29.132;2023-10-09T12:05:11;37.93;;;22.33;;
8944;SDS011;4507;40.232;29.132;2023-10-09T12:07:45;26.87;;;12.17;;
8944;SDS011;4507;40.232;29.132;2023-10-09T12:10:18;16.27;;;7.63;;
8944;SDS011;4507;40.232;29.132;2023-10-09T12:12:53;42.67;;;19.50;;
8944;SDS011;4507;40.232;29.132;2023-10-09T12:15:29;31.17;;;9.20;;
8944;SDS011;4507;40.232;29.132;2023-10-09T12:18:05;32.50;;;9.50;;
8944;SDS011;4507;40.232;29.132;2023-10-09T12:20:42;21.10;;;11.43;;
8944;SDS011;4507;40.232;29.132;2023-10-09T12:23:19;24.17;;;10.03;;
8944;SDS011;4507;40.232;29.132;2023-10-09T12:25:55;23.73;;;7.07;;
8944;SDS011;4507;40.232;29.132;2023-10-09T12:28:24;18.53;;;6.90;;
8944;SDS011;4507;40.232;29.132;2023-10-09T12:30:53;16.50;;;7.03;;
8944;SDS011;4507;40.232;29.132;2023-10-09T12:33:28;22.53;;;9.30;;
8944;SDS011;4507;40.232;29.132;2023-10-09T12:35:58;11.40;;;6.73;;
8944;SDS011;4507;40.232;29.132;2023-10-09T12:38:31;13.80;;;6.20;;
8944;SDS011;4507;40.232;29.132;2023-10-09T12:41:19;18.33;;;6.33;;
8944;SDS011;4507;40.232;29.132;2023-10-09T12:43:53;15.43;;;6.50;;
8944;SDS011;4507;40.232;29.132;2023-10-09T12:46:43;9.97;;;5.53;;
8944;SDS011;4507;40.232;29.132;2023-10-09T12:49:19;30.83;;;10.07;;
8944;SDS011;4507;40.232;29.132;2023-10-09T12:51:52;21.00;;;11.90;;
8944;SDS011;4507;40.232;29.132;2023-10-09T12:54:24;21.33;;;8.67;;
8944;SDS011;4507;40.232;29.132;2023-10-09T12:56:55;28.60;;;8.37;;
8944;SDS011;4507;40.232;29.132;2023-10-09T12:59:24;20.10;;;8.17;;
8944;SDS011;4507;40.232;29.132;2023-10-09T13:01:54;21.80;;;15.63;;
8944;SDS011;4507;40.232;29.132;2023-10-09T13:04:26;35.37;;;26.00;;
8944;SDS011;4507;40.232;29.132;2023-10-09T13:06:59;65.30;;;18.93;;
8944;SDS011;4507;40.232;29.132;2023-10-09T13:09:37;26.57;;;18.43;;
8944;SDS011;4507;40.232;29.132;2023-10-09T13:12:10;16.83;;;8.03;;
8944;SDS011;4507;40.232;29.132;2023-10-09T13:14:46;14.17;;;7.67;;
8944;SDS011;4507;40.232;29.132;2023-10-09T13:17:17;19.17;;;8.13;;
8944;SDS011;4507;40.232;29.132;2023-10-09T13:19:47;17.83;;;9.67;;
8944;SDS011;4507;40.232;29.132;2023-10-09T13:22:16;87.70;;;12.33;;
8944;SDS011;4507;40.232;29.132;2023-10-09T13:24:47;35.50;;;14.13;;
